createdAt,value
2022-08-01T00:00:45.204Z,24.80
2022-08-01T00:03:12.301Z,24.80
2022-08-01T00:05:39.696Z,24.70
2022-08-01T00:08:06.806Z,24.70
2022-08-01T00:10:34.008Z,24.70
2022-08-01T00:13:03.561Z,24.60
2022-08-01T00:15:30.856Z,24.60
2022-08-01T00:17:57.971Z,24.60
2022-08-01T00:20:25.076Z,24.60
2022-08-01T00:22:52.244Z,24.60
2022-08-01T00:25:19.293Z,24.60
2022-08-01T00:27:46.459Z,24.60
2022-08-01T00:30:15.147Z,24.50
2022-08-01T00:32:43.772Z,24.50
2022-08-01T00:35:11.690Z,24.50
2022-08-01T00:37:38.700Z,24.50
2022-08-01T00:40:06.992Z,24.50
2022-08-01T00:42:34.157Z,24.50
2022-08-01T00:45:01.271Z,24.50
2022-08-01T00:47:28.307Z,24.60
2022-08-01T00:49:55.461Z,24.60
2022-08-01T00:52:22.535Z,24.60
2022-08-01T00:54:49.695Z,24.60
2022-08-01T00:57:16.877Z,24.60
2022-08-01T01:00:05.894Z,24.60
2022-08-01T01:02:33.245Z,24.60
2022-08-01T01:05:04.535Z,24.60
2022-08-01T01:07:51.952Z,24.60
2022-08-01T01:10:33.200Z,24.60
2022-08-01T01:13:24.450Z,24.60
2022-08-01T01:15:59.368Z,24.60
2022-08-01T01:18:38.772Z,24.60
2022-08-01T01:21:18.060Z,24.60
2022-08-01T01:24:12.610Z,24.50
2022-08-01T01:26:43.692Z,24.50
2022-08-01T01:29:59.693Z,24.40
2022-08-01T01:32:47.605Z,24.30
2022-08-01T01:35:23.728Z,24.30
2022-08-01T01:37:55.413Z,24.20
2022-08-01T01:40:24.029Z,24.20
2022-08-01T01:42:52.947Z,24.20
2022-08-01T01:45:21.317Z,24.20
2022-08-01T01:47:49.286Z,24.20
2022-08-01T01:50:16.689Z,24.20
2022-08-01T01:52:45.516Z,24.20
2022-08-01T01:55:13.621Z,24.10
2022-08-01T01:57:42.591Z,24.10
2022-08-01T02:00:12.854Z,24.00
2022-08-01T02:02:42.194Z,24.10
2022-08-01T02:05:13.247Z,24.00
2022-08-01T02:07:42.058Z,24.00
2022-08-01T02:10:12.929Z,24.00
2022-08-01T02:12:44.308Z,24.00
2022-08-01T02:15:13.328Z,23.90
2022-08-01T02:17:44.283Z,24.00
2022-08-01T02:20:12.089Z,23.90
2022-08-01T02:22:59.086Z,23.90
2022-08-01T02:25:39.619Z,23.90
2022-08-01T02:28:34.091Z,23.90
2022-08-01T02:31:05.014Z,23.90
2022-08-01T02:33:39.566Z,23.90
2022-08-01T02:36:30.094Z,23.90
2022-08-01T02:38:57.894Z,23.90
2022-08-01T02:41:28.148Z,23.90
2022-08-01T02:44:06.108Z,23.90
2022-08-01T02:46:39.076Z,23.90
2022-08-01T02:49:10.315Z,23.90
2022-08-01T02:51:39.011Z,23.80
2022-08-01T02:54:09.352Z,23.70
2022-08-01T02:56:37.802Z,23.80
2022-08-01T02:59:08.681Z,23.70
2022-08-01T03:01:36.929Z,23.70
2022-08-01T03:04:06.299Z,23.70
2022-08-01T03:06:34.807Z,23.80
2022-08-01T03:09:04.497Z,23.70
2022-08-01T03:11:33.062Z,23.70
2022-08-01T03:14:06.003Z,23.70
2022-08-01T03:16:36.423Z,23.70
2022-08-01T03:19:04.670Z,23.70
2022-08-01T03:21:33.534Z,23.80
2022-08-01T03:24:02.519Z,23.80
2022-08-01T03:26:31.955Z,23.80
2022-08-01T03:29:10.956Z,23.70
2022-08-01T03:31:39.392Z,23.70
2022-08-01T03:34:07.979Z,23.70
2022-08-01T03:36:42.631Z,23.60
2022-08-01T03:39:12.439Z,23.60
2022-08-01T03:41:44.635Z,23.60
2022-08-01T03:44:17.252Z,23.60
2022-08-01T03:46:48.303Z,23.60
2022-08-01T03:49:36.593Z,23.60
2022-08-01T03:52:08.096Z,23.50
2022-08-01T03:54:41.216Z,23.50
2022-08-01T03:57:08.687Z,23.50
2022-08-01T03:59:57.870Z,23.50
2022-08-01T04:02:26.534Z,23.40
2022-08-01T04:04:54.226Z,23.40
2022-08-01T04:07:30.363Z,23.40
2022-08-01T04:09:57.897Z,23.30
2022-08-01T04:12:25.312Z,23.40
2022-08-01T04:14:52.496Z,23.30
2022-08-01T04:17:20.085Z,23.30
2022-08-01T04:19:47.511Z,23.30
2022-08-01T04:22:18.029Z,23.30
2022-08-01T04:24:54.677Z,23.30
2022-08-01T04:27:50.828Z,23.30
2022-08-01T04:30:21.634Z,23.30
2022-08-01T04:32:50.950Z,23.20
2022-08-01T04:35:23.390Z,23.20
2022-08-01T04:38:11.116Z,23.20
2022-08-01T04:40:38.968Z,23.20
2022-08-01T04:43:06.937Z,23.20
2022-08-01T04:45:35.787Z,23.10
2022-08-01T04:48:03.437Z,23.10
2022-08-01T04:50:31.000Z,23.10
2022-08-01T04:52:58.038Z,23.00
2022-08-01T04:55:25.427Z,23.00
2022-08-01T04:57:52.765Z,23.00
2022-08-01T05:00:19.807Z,23.00
2022-08-01T05:02:47.792Z,23.10
2022-08-01T05:05:15.874Z,23.10
2022-08-01T05:07:44.839Z,23.20
2022-08-01T05:10:12.985Z,23.20
2022-08-01T05:12:40.925Z,23.30
2022-08-01T05:15:13.228Z,23.40
2022-08-01T05:17:45.250Z,23.50
2022-08-01T05:20:13.125Z,23.60
2022-08-01T05:22:40.286Z,23.70
2022-08-01T05:25:08.162Z,23.80
2022-08-01T05:27:40.401Z,23.90
2022-08-01T05:30:11.280Z,24.00
2022-08-01T05:32:39.082Z,24.20
2022-08-01T05:35:06.800Z,24.40
2022-08-01T05:37:34.122Z,24.60
2022-08-01T05:40:01.292Z,24.90
2022-08-01T05:42:28.460Z,25.20
2022-08-01T05:44:55.609Z,25.40
2022-08-01T05:47:23.093Z,25.70
2022-08-01T05:49:50.963Z,25.90
2022-08-01T05:52:18.402Z,26.00
2022-08-01T05:54:46.177Z,26.10
2022-08-01T05:57:13.502Z,26.20
2022-08-01T05:59:42.458Z,26.40
2022-08-01T06:02:10.109Z,26.40
2022-08-01T06:04:37.527Z,26.60
2022-08-01T06:07:04.671Z,26.70
2022-08-01T06:09:31.998Z,26.80
2022-08-01T06:11:59.193Z,26.90
2022-08-01T06:14:26.257Z,27.00
2022-08-01T06:16:53.380Z,27.10
2022-08-01T06:19:20.499Z,27.20
2022-08-01T06:21:49.425Z,27.30
2022-08-01T06:24:16.998Z,27.50
2022-08-01T06:26:44.265Z,27.60
2022-08-01T06:29:11.285Z,27.70
2022-08-01T06:31:39.342Z,27.80
2022-08-01T06:34:06.561Z,27.90
2022-08-01T06:36:33.632Z,28.00
2022-08-01T06:39:00.687Z,28.10
2022-08-01T06:41:27.692Z,28.20
2022-08-01T06:43:54.822Z,28.40
2022-08-01T06:46:21.834Z,28.50
2022-08-01T06:48:48.943Z,28.60
2022-08-01T06:51:19.034Z,28.70
2022-08-01T06:53:46.286Z,28.90
2022-08-01T06:56:13.404Z,29.00
2022-08-01T06:58:40.457Z,29.20
2022-08-01T07:01:08.322Z,29.40
2022-08-01T07:03:53.111Z,29.50
2022-08-01T07:06:25.223Z,29.70
2022-08-01T07:08:53.863Z,29.90
2022-08-01T07:11:22.086Z,30.00
2022-08-01T07:13:49.552Z,30.20
2022-08-01T07:16:17.576Z,30.30
2022-08-01T07:18:44.819Z,30.40
2022-08-01T07:21:16.706Z,30.40
2022-08-01T07:24:00.265Z,30.50
2022-08-01T07:26:28.551Z,30.60
2022-08-01T07:28:56.247Z,30.70
2022-08-01T07:31:24.342Z,30.70
2022-08-01T07:33:53.034Z,30.80
2022-08-01T07:36:20.521Z,30.80
2022-08-01T07:38:48.594Z,31.00
2022-08-01T07:41:18.705Z,31.10
2022-08-01T07:43:56.076Z,31.20
2022-08-01T07:46:25.711Z,31.30
2022-08-01T07:48:52.774Z,31.40
2022-08-01T07:51:19.971Z,31.60
2022-08-01T07:53:47.096Z,31.70
2022-08-01T07:56:14.137Z,31.80
2022-08-01T07:58:41.356Z,32.00
2022-08-01T08:01:08.379Z,32.10
2022-08-01T08:03:35.436Z,32.20
2022-08-01T08:06:02.762Z,32.20
2022-08-01T08:08:29.925Z,32.40
2022-08-01T08:10:57.076Z,32.50
2022-08-01T08:13:24.372Z,32.60
2022-08-01T08:15:51.370Z,32.80
2022-08-01T08:18:18.708Z,33.00
2022-08-01T08:20:46.107Z,33.10
2022-08-01T08:23:41.901Z,33.20
2022-08-01T08:26:11.128Z,33.40
2022-08-01T08:28:38.334Z,33.50
2022-08-01T08:31:25.457Z,33.60
2022-08-01T08:33:55.917Z,33.70
2022-08-01T08:36:31.199Z,33.80
2022-08-01T08:39:01.817Z,33.90
2022-08-01T08:41:37.736Z,34.00
2022-08-01T08:44:10.539Z,34.10
2022-08-01T08:46:56.961Z,34.20
2022-08-01T08:49:28.076Z,34.30
2022-08-01T08:52:05.280Z,34.40
2022-08-01T08:54:34.761Z,34.50
2022-08-01T08:57:02.520Z,34.60
2022-08-01T08:59:30.291Z,34.70
2022-08-01T09:02:04.547Z,34.70
2022-08-01T09:04:33.469Z,34.70
2022-08-01T09:07:00.598Z,34.80
2022-08-01T09:09:28.378Z,34.90
2022-08-01T09:11:57.379Z,34.90
2022-08-01T09:14:31.003Z,35.00
2022-08-01T09:17:12.007Z,35.10
2022-08-01T09:19:54.387Z,35.20
2022-08-01T09:22:26.258Z,35.40
2022-08-01T09:25:09.788Z,35.50
2022-08-01T09:27:44.068Z,35.60
2022-08-01T09:30:17.298Z,35.70
2022-08-01T09:33:11.142Z,35.70
2022-08-01T09:35:54.719Z,35.70
2022-08-01T09:38:24.511Z,35.80
2022-08-01T09:40:55.609Z,35.80
2022-08-01T09:43:29.022Z,35.80
2022-08-01T09:45:58.039Z,36.00
2022-08-01T09:48:28.252Z,36.00
2022-08-01T09:51:07.126Z,36.10
2022-08-01T09:53:51.408Z,36.30
2022-08-01T09:56:22.899Z,36.40
2022-08-01T09:59:01.406Z,36.50
2022-08-01T10:01:43.532Z,36.70
2022-08-01T10:04:17.486Z,36.80
2022-08-01T10:06:55.560Z,36.90
2022-08-01T10:09:40.611Z,37.00
2022-08-01T10:12:15.857Z,37.00
2022-08-01T10:14:45.943Z,37.20
2022-08-01T10:17:19.486Z,37.30
2022-08-01T10:19:47.824Z,37.30
2022-08-01T10:22:18.577Z,37.50
2022-08-01T10:24:48.226Z,37.50
2022-08-01T10:27:24.569Z,37.50
2022-08-01T10:30:20.152Z,37.50
2022-08-01T10:32:55.673Z,37.50
2022-08-01T10:35:45.930Z,37.60
2022-08-01T10:38:13.797Z,37.50
2022-08-01T10:40:45.121Z,37.50
2022-08-01T10:43:13.794Z,37.60
2022-08-01T10:45:50.609Z,37.70
2022-08-01T10:48:39.761Z,37.80
2022-08-01T10:51:17.886Z,37.90
2022-08-01T10:53:54.846Z,37.90
2022-08-01T10:56:26.788Z,38.00
2022-08-01T10:59:06.048Z,38.00
2022-08-01T11:01:44.943Z,38.20
2022-08-01T11:04:17.973Z,38.20
2022-08-01T11:07:01.883Z,38.30
2022-08-01T11:10:24.270Z,38.50
2022-08-01T11:12:51.730Z,38.60
2022-08-01T11:15:29.274Z,38.60
2022-08-01T11:18:00.523Z,38.70
2022-08-01T11:20:31.640Z,38.70
2022-08-01T11:23:02.929Z,38.70
2022-08-01T11:26:06.673Z,38.70
2022-08-01T11:28:36.712Z,38.80
2022-08-01T11:31:11.692Z,38.80
2022-08-01T11:33:41.587Z,38.80
2022-08-01T11:36:16.685Z,38.80
2022-08-01T11:38:45.040Z,38.80
2022-08-01T11:41:18.229Z,38.70
2022-08-01T11:44:06.978Z,38.50
2022-08-01T11:46:58.109Z,38.50
2022-08-01T11:49:29.007Z,38.50
2022-08-01T11:52:09.612Z,38.50
2022-08-01T11:54:51.659Z,38.60
2022-08-01T11:57:24.206Z,38.70
2022-08-01T12:00:16.638Z,38.70
2022-08-01T12:02:45.866Z,38.80
2022-08-01T12:05:17.691Z,38.80
2022-08-01T12:07:47.039Z,38.90
2022-08-01T12:10:22.712Z,38.90
2022-08-01T12:12:52.899Z,38.80
2022-08-01T12:15:23.720Z,38.70
2022-08-01T12:17:59.716Z,38.60
2022-08-01T12:20:33.908Z,38.70
2022-08-01T12:23:09.039Z,38.70
2022-08-01T12:25:37.411Z,38.80
2022-08-01T12:28:06.282Z,38.90
2022-08-01T12:30:37.168Z,39.00
2022-08-01T12:33:11.272Z,39.00
2022-08-01T12:35:39.757Z,39.00
2022-08-01T12:38:14.633Z,39.00
2022-08-01T12:40:45.448Z,39.10
2022-08-01T12:43:27.444Z,39.10
2022-08-01T12:45:57.902Z,39.10
2022-08-01T12:48:26.147Z,39.00
2022-08-01T12:50:54.068Z,39.10
2022-08-01T12:53:22.773Z,39.10
2022-08-01T12:55:59.438Z,39.10
2022-08-01T12:58:36.570Z,39.00
2022-08-01T13:01:11.958Z,38.90
2022-08-01T13:03:39.685Z,38.80
2022-08-01T13:06:16.233Z,38.70
2022-08-01T13:08:44.407Z,38.60
2022-08-01T13:11:17.452Z,38.60
2022-08-01T13:13:49.773Z,38.60
2022-08-01T13:16:27.929Z,38.50
2022-08-01T13:19:01.746Z,38.50
2022-08-01T13:21:53.300Z,38.40
2022-08-01T13:24:24.880Z,38.30
2022-08-01T13:27:05.009Z,38.30
2022-08-01T13:29:32.824Z,38.20
2022-08-01T13:32:27.838Z,38.10
2022-08-01T13:35:08.160Z,38.00
2022-08-01T13:37:39.056Z,38.00
2022-08-01T13:40:08.138Z,38.10
2022-08-01T13:42:36.036Z,38.10
2022-08-01T13:45:13.748Z,38.20
2022-08-01T13:48:03.611Z,38.20
2022-08-01T13:50:34.315Z,38.30
2022-08-01T13:53:02.021Z,38.20
2022-08-01T13:55:34.689Z,38.10
2022-08-01T13:58:07.079Z,38.00
2022-08-01T14:00:34.331Z,38.00
2022-08-01T14:03:01.423Z,38.00
2022-08-01T14:05:28.626Z,37.90
2022-08-01T14:07:56.464Z,37.90
2022-08-01T14:10:24.943Z,37.80
2022-08-01T14:12:52.003Z,37.80
2022-08-01T14:15:38.319Z,37.80
2022-08-01T14:18:09.558Z,37.70
2022-08-01T14:20:38.421Z,37.60
2022-08-01T14:23:06.400Z,37.60
2022-08-01T14:26:00.234Z,37.50
2022-08-01T14:28:28.499Z,37.60
2022-08-01T14:30:59.046Z,37.60
2022-08-01T14:33:28.701Z,37.70
2022-08-01T14:36:05.925Z,37.70
2022-08-01T14:38:46.324Z,37.70
2022-08-01T14:41:14.989Z,37.70
2022-08-01T14:43:42.135Z,37.70
2022-08-01T14:46:10.897Z,37.60
2022-08-01T14:48:38.142Z,37.60
2022-08-01T14:51:08.095Z,37.50
2022-08-01T14:53:38.634Z,37.50
2022-08-01T14:56:06.631Z,37.50
2022-08-01T14:58:33.906Z,37.50
2022-08-01T15:01:01.705Z,37.50
2022-08-01T15:03:28.996Z,37.50
2022-08-01T15:05:56.118Z,37.50
2022-08-01T15:08:23.531Z,37.50
2022-08-01T15:10:50.887Z,37.50
2022-08-01T15:13:17.976Z,37.50
2022-08-01T15:15:45.880Z,37.50
2022-08-01T15:18:13.266Z,37.40
2022-08-01T15:20:42.351Z,37.40
2022-08-01T15:23:10.442Z,37.40
2022-08-01T15:25:40.373Z,37.30
2022-08-01T15:28:13.186Z,37.30
2022-08-01T15:30:40.845Z,37.20
2022-08-01T15:33:08.547Z,37.20
2022-08-01T15:35:36.006Z,37.20
2022-08-01T15:38:03.486Z,37.20
2022-08-01T15:40:34.236Z,37.10
2022-08-01T15:43:01.904Z,37.10
2022-08-01T15:45:46.997Z,37.10
2022-08-01T15:48:19.531Z,37.10
2022-08-01T15:50:46.673Z,37.00
2022-08-01T15:53:14.364Z,36.90
2022-08-01T15:55:41.820Z,36.90
2022-08-01T15:58:16.007Z,36.80
2022-08-01T16:00:43.140Z,36.80
2022-08-01T16:03:10.655Z,36.80
2022-08-01T16:05:43.578Z,36.80
2022-08-01T16:08:13.533Z,36.70
2022-08-01T16:10:40.951Z,36.70
2022-08-01T16:13:08.527Z,36.60
2022-08-01T16:15:39.529Z,36.60
2022-08-01T16:18:14.632Z,36.60
2022-08-01T16:20:45.403Z,36.50
2022-08-01T16:23:14.560Z,36.50
2022-08-01T16:25:42.121Z,36.40
2022-08-01T16:28:10.012Z,36.40
2022-08-01T16:30:39.250Z,36.30
2022-08-01T16:33:45.822Z,36.30
2022-08-01T16:36:16.713Z,36.20
2022-08-01T16:38:45.619Z,36.20
2022-08-01T16:41:19.684Z,36.10
2022-08-01T16:43:53.600Z,36.00
2022-08-01T16:46:25.679Z,35.90
2022-08-01T16:48:53.878Z,35.90
2022-08-01T16:51:21.028Z,35.80
2022-08-01T16:53:48.226Z,35.80
2022-08-01T16:56:15.379Z,35.70
2022-08-01T16:58:42.576Z,35.60
2022-08-01T17:02:01.428Z,35.60
2022-08-01T17:04:00.909Z,35.40
2022-08-01T17:06:29.408Z,35.40
2022-08-01T17:08:56.717Z,35.30
2022-08-01T17:11:23.912Z,35.30
2022-08-01T17:13:50.954Z,35.20
2022-08-01T17:16:18.165Z,35.20
2022-08-01T17:18:45.363Z,35.10
2022-08-01T17:21:12.521Z,35.10
2022-08-01T17:23:39.589Z,35.00
2022-08-01T17:26:06.732Z,34.90
2022-08-01T17:28:33.962Z,34.80
2022-08-01T17:31:01.003Z,34.80
2022-08-01T17:33:45.303Z,34.70
2022-08-01T17:36:13.961Z,34.60
2022-08-01T17:38:41.210Z,34.50
2022-08-01T17:41:08.415Z,34.40
2022-08-01T17:43:35.623Z,34.30
2022-08-01T17:46:02.785Z,34.30
2022-08-01T17:48:30.001Z,34.20
2022-08-01T17:50:57.094Z,34.20
2022-08-01T17:53:24.339Z,34.10
2022-08-01T17:55:53.218Z,34.00
2022-08-01T17:58:49.223Z,33.90
2022-08-01T18:01:12.897Z,33.90
2022-08-01T18:03:40.940Z,33.80
2022-08-01T18:06:10.416Z,33.70
2022-08-01T18:08:40.529Z,33.70
2022-08-01T18:11:08.113Z,33.60
2022-08-01T18:13:36.828Z,33.60
2022-08-01T18:16:11.112Z,33.50
2022-08-01T18:18:39.216Z,33.40
2022-08-01T18:21:07.878Z,33.30
2022-08-01T18:23:35.441Z,33.20
2022-08-01T18:26:03.412Z,33.10
2022-08-01T18:28:36.496Z,33.00
2022-08-01T18:31:09.111Z,32.90
2022-08-01T18:33:36.544Z,32.80
2022-08-01T18:36:04.681Z,32.70
2022-08-01T18:38:32.882Z,32.60
2022-08-01T18:41:01.318Z,32.50
2022-08-01T18:43:29.794Z,32.40
2022-08-01T18:45:57.651Z,32.30
2022-08-01T18:48:25.011Z,32.20
2022-08-01T18:50:53.900Z,32.10
2022-08-01T18:53:23.773Z,32.00
2022-08-01T18:55:51.038Z,31.90
2022-08-01T18:58:18.650Z,31.80
2022-08-01T19:00:45.757Z,31.70
2022-08-01T19:03:13.804Z,31.70
2022-08-01T19:05:41.057Z,31.60
2022-08-01T19:08:08.666Z,31.50
2022-08-01T19:10:37.003Z,31.40
2022-08-01T19:13:04.283Z,31.40
2022-08-01T19:15:31.649Z,31.30
2022-08-01T19:17:58.732Z,31.20
2022-08-01T19:20:26.012Z,31.20
2022-08-01T19:22:53.154Z,31.10
2022-08-01T19:25:20.729Z,31.00
2022-08-01T19:27:49.885Z,31.00
2022-08-01T19:30:18.817Z,30.90
2022-08-01T19:32:48.899Z,30.80
2022-08-01T19:35:17.282Z,30.80
2022-08-01T19:37:47.214Z,30.80
2022-08-01T19:40:27.245Z,30.70
2022-08-01T19:42:56.826Z,30.60
2022-08-01T19:45:25.114Z,30.60
2022-08-01T19:47:56.446Z,30.50
2022-08-01T19:50:29.204Z,30.50
2022-08-01T19:52:57.820Z,30.40
2022-08-01T19:55:27.044Z,30.30
2022-08-01T19:58:26.283Z,30.30
2022-08-01T20:00:43.852Z,30.30
2022-08-01T20:03:12.619Z,30.20
2022-08-01T20:05:40.434Z,30.20
2022-08-01T20:08:08.144Z,30.10
2022-08-01T20:10:38.203Z,30.10
2022-08-01T20:13:09.671Z,30.00
2022-08-01T20:15:38.671Z,30.00
2022-08-01T20:18:07.357Z,29.90
2022-08-01T20:20:36.842Z,29.90
2022-08-01T20:23:07.651Z,29.80
2022-08-01T20:25:40.293Z,29.80
2022-08-01T20:28:10.935Z,29.70
2022-08-01T20:30:40.310Z,29.70
2022-08-01T20:33:08.464Z,29.70
2022-08-01T20:35:52.136Z,29.60
2022-08-01T20:38:23.205Z,29.60
2022-08-01T20:40:56.634Z,29.50
2022-08-01T20:43:24.176Z,29.40
2022-08-01T20:45:51.921Z,29.40
2022-08-01T20:48:20.318Z,29.40
2022-08-01T20:51:07.663Z,29.30
2022-08-01T20:53:40.950Z,29.30
2022-08-01T20:56:16.766Z,29.20
2022-08-01T20:58:44.517Z,29.20
2022-08-01T21:01:16.231Z,29.10
2022-08-01T21:03:59.687Z,29.10
2022-08-01T21:06:35.940Z,29.10
2022-08-01T21:09:05.008Z,29.00
2022-08-01T21:11:50.750Z,29.00
2022-08-01T21:14:21.832Z,29.00
2022-08-01T21:17:04.910Z,29.00
2022-08-01T21:19:34.604Z,28.90
2022-08-01T21:22:15.013Z,28.90
2022-08-01T21:25:03.814Z,28.90
2022-08-01T21:27:34.252Z,28.90
2022-08-01T21:30:07.993Z,28.80
2022-08-01T21:32:36.459Z,28.70
2022-08-01T21:35:16.189Z,28.70
2022-08-01T21:37:45.546Z,28.60
2022-08-01T21:40:23.927Z,28.60
2022-08-01T21:42:52.952Z,28.50
2022-08-01T21:45:25.665Z,28.50
2022-08-01T21:47:55.214Z,28.40
2022-08-01T21:50:23.740Z,28.40
2022-08-01T21:53:50.560Z,28.30
2022-08-01T21:56:26.071Z,28.30
2022-08-01T21:59:03.933Z,28.20
2022-08-01T22:01:53.226Z,28.10
2022-08-01T22:04:45.353Z,28.10
2022-08-01T22:07:16.485Z,28.00
2022-08-01T22:09:49.856Z,27.90
2022-08-01T22:12:18.812Z,27.80
2022-08-01T22:14:50.022Z,27.80
2022-08-01T22:17:24.987Z,27.80
2022-08-01T22:19:55.417Z,27.80
2022-08-01T22:22:44.143Z,27.70
2022-08-01T22:25:16.170Z,27.70
2022-08-01T22:28:05.668Z,27.70
2022-08-01T22:30:32.325Z,27.60
2022-08-01T22:33:08.053Z,27.60
2022-08-01T22:35:46.346Z,27.60
2022-08-01T22:38:16.870Z,27.60
2022-08-01T22:41:12.752Z,27.50
2022-08-01T22:44:01.072Z,27.50
2022-08-01T22:46:37.825Z,27.50
2022-08-01T22:49:30.059Z,27.50
2022-08-01T22:52:25.370Z,27.40
2022-08-01T22:55:07.042Z,27.40
2022-08-01T22:58:07.628Z,27.40
2022-08-01T23:00:36.245Z,27.30
2022-08-01T23:03:10.458Z,27.30
2022-08-01T23:05:47.082Z,27.30
2022-08-01T23:08:21.073Z,27.30
2022-08-01T23:10:48.418Z,27.30
2022-08-01T23:13:17.581Z,27.30
2022-08-01T23:15:52.576Z,27.20
2022-08-01T23:18:21.461Z,27.20
2022-08-01T23:20:50.981Z,27.20
2022-08-01T23:23:19.225Z,27.10
2022-08-01T23:25:59.856Z,27.00
2022-08-01T23:28:28.697Z,27.00
2022-08-01T23:30:56.080Z,27.00
2022-08-01T23:33:23.640Z,26.90
2022-08-01T23:35:50.915Z,26.90
2022-08-01T23:38:18.658Z,26.90
2022-08-01T23:40:45.883Z,26.90
2022-08-01T23:43:16.661Z,26.80
2022-08-01T23:46:03.891Z,26.80
2022-08-01T23:48:34.103Z,26.70
2022-08-01T23:51:02.144Z,26.70
2022-08-01T23:53:30.719Z,26.60
2022-08-01T23:56:02.536Z,26.50
2022-08-01T23:58:30.664Z,26.50
